Time;durP1;ratioP1;P1;durP2;ratioP2;P2;SDS_P1;SDS_P2;PMS_P1;PMS_P2;Temp;Humidity;BMP_temperature;BMP_pressure;BME280_temperature;BME280_humidity;BME280_pressure;Samples;Min_cycle;Max_cycle;Signal;HPM_P1;HPM_P2
2021/11/15 00:00:47;;;;;;;16.77;14.90;;;9.20;99.90;;;;;;5053529;28;20536;-85
2021/11/15 00:03:14;;;;;;;18.13;14.20;;;9.10;99.90;;;;;;5035367;28;20607;-84
2021/11/15 00:05:40;;;;;;;14.90;13.40;;;9.30;99.90;;;;;;5053192;28;20171;-84
2021/11/15 00:08:06;;;;;;;17.53;14.40;;;9.10;99.90;;;;;;5053321;28;20190;-84
2021/11/15 00:10:32;;;;;;;19.00;15.43;;;9.20;99.90;;;;;;5053239;28;20160;-84
2021/11/15 00:12:57;;;;;;;21.17;14.67;;;9.20;99.90;;;;;;5053296;28;20442;-84
2021/11/15 00:15:23;;;;;;;17.33;15.00;;;7.90;99.90;;;;;;5053234;28;20954;-84
2021/11/15 00:17:49;;;;;;;17.43;14.67;;;9.10;99.90;;;;;;5053174;28;20198;-84
2021/11/15 00:20:16;;;;;;;19.03;15.00;;;9.00;99.90;;;;;;5035224;28;20171;-85
2021/11/15 00:22:42;;;;;;;17.52;15.02;;;9.20;99.90;;;;;;5053122;28;20418;-84
2021/11/15 00:25:09;;;;;;;17.35;15.48;;;9.10;99.90;;;;;;5053002;28;20205;-85
2021/11/15 00:27:34;;;;;;;17.97;14.87;;;9.00;99.90;;;;;;5052741;28;20691;-84
2021/11/15 00:30:00;;;;;;;17.10;15.40;;;8.60;99.90;;;;;;5053066;28;20489;-84
2021/11/15 00:32:29;;;;;;;16.97;14.07;;;8.90;99.90;;;;;;5052911;28;20198;-84
2021/11/15 00:34:55;;;;;;;14.52;12.43;;;8.60;99.90;;;;;;5052872;28;20269;-84
2021/11/15 00:37:21;;;;;;;19.80;14.57;;;8.90;99.90;;;;;;5052969;28;20703;-83
2021/11/15 00:39:47;;;;;;;16.90;14.80;;;9.00;99.90;;;;;;5052837;28;20199;-84
2021/11/15 00:42:13;;;;;;;15.77;14.07;;;9.00;99.90;;;;;;5052900;28;20249;-84
2021/11/15 00:44:39;;;;;;;18.17;14.73;;;9.00;99.90;;;;;;5052712;28;20218;-84
2021/11/15 00:47:05;;;;;;;15.55;14.02;;;9.10;99.90;;;;;;5052601;28;20241;-84
2021/11/15 00:49:30;;;;;;;15.47;12.97;;;9.10;99.90;;;;;;5052597;28;20167;-85
2021/11/15 00:51:56;;;;;;;16.90;13.93;;;9.20;99.90;;;;;;5052759;28;20175;-84
2021/11/15 00:54:21;;;;;;;15.97;14.43;;;9.20;99.90;;;;;;5052687;28;20163;-85
2021/11/15 00:56:47;;;;;;;23.00;15.30;;;9.00;99.90;;;;;;5034831;28;20186;-84
2021/11/15 00:59:13;;;;;;;16.70;15.10;;;8.90;99.90;;;;;;5052830;28;20249;-84
2021/11/15 01:01:38;;;;;;;17.13;13.80;;;9.00;99.90;;;;;;5052699;28;20172;-84
2021/11/15 01:04:04;;;;;;;19.77;16.37;;;9.30;99.90;;;;;;5052474;28;20233;-85
2021/11/15 01:06:30;;;;;;;20.67;16.20;;;8.90;99.90;;;;;;5052696;28;20202;-85
2021/11/15 01:08:55;;;;;;;17.83;15.43;;;9.00;99.90;;;;;;5052516;28;20417;-85
2021/11/15 01:11:21;;;;;;;16.80;13.47;;;8.90;99.90;;;;;;5052570;28;20159;-83
2021/11/15 01:13:47;;;;;;;17.07;12.93;;;9.00;99.90;;;;;;5052596;28;20179;-84
2021/11/15 01:16:12;;;;;;;17.63;15.73;;;8.90;99.90;;;;;;5052517;28;20186;-84
2021/11/15 01:18:43;;;;;;;15.80;14.00;;;9.00;99.90;;;;;;5052455;28;20171;-85
2021/11/15 01:21:12;;;;;;;18.08;13.90;;;8.90;99.90;;;;;;5052462;28;20167;-85
2021/11/15 01:23:38;;;;;;;17.52;14.68;;;8.90;99.90;;;;;;5052478;28;20250;-84
2021/11/15 01:26:06;;;;;;;15.93;14.15;;;8.70;99.90;;;;;;5052308;28;20253;-84
2021/11/15 01:28:31;;;;;;;16.77;14.30;;;9.00;99.90;;;;;;5052365;28;20737;-85
2021/11/15 01:30:57;;;;;;;15.57;13.30;;;9.00;99.90;;;;;;5052382;28;20437;-84
2021/11/15 01:33:22;;;;;;;18.10;14.20;;;9.00;99.90;;;;;;5052362;28;20178;-84
2021/11/15 01:35:48;;;;;;;18.13;14.60;;;8.80;99.90;;;;;;5052443;28;20194;-84
2021/11/15 01:38:14;;;;;;;16.70;15.00;;;8.80;99.90;;;;;;5034510;28;20179;-84
2021/11/15 01:40:39;;;;;;;14.67;13.17;;;9.00;99.90;;;;;;5052377;28;20171;-84
2021/11/15 01:43:05;;;;;;;16.23;14.17;;;8.90;99.90;;;;;;5034480;28;20262;-84
2021/11/15 01:45:34;;;;;;;17.90;14.73;;;8.90;99.90;;;;;;5052265;28;20643;-83
2021/11/15 01:48:03;;;;;;;17.52;14.48;;;8.90;99.90;;;;;;5052109;28;20222;-84
2021/11/15 01:50:30;;;;;;;17.48;15.32;;;8.80;99.90;;;;;;5052378;28;20254;-84
2021/11/15 01:52:57;;;;;;;15.98;13.80;;;8.80;99.90;;;;;;5052187;28;20254;-84
2021/11/15 01:55:24;;;;;;;18.45;14.82;;;8.70;99.90;;;;;;5054847;28;20167;-84
2021/11/15 01:57:51;;;;;;;19.85;14.93;;;8.60;99.90;;;;;;5055900;28;20203;-84
2021/11/15 02:00:29;;;;;;;17.17;14.65;;;8.70;99.90;;;;;;5055655;28;20653;-85
2021/11/15 02:02:56;;;;;;;18.80;13.88;;;8.70;99.90;;;;;;5055485;28;20622;-84
2021/11/15 02:05:22;;;;;;;21.40;16.00;;;8.70;99.90;;;;;;5055683;28;20167;-84
2021/11/15 02:07:47;;;;;;;17.87;15.13;;;8.80;99.90;;;;;;5055625;28;20207;-84
2021/11/15 02:10:13;;;;;;;18.30;15.47;;;8.70;99.90;;;;;;5055542;28;20523;-84
2021/11/15 02:12:40;;;;;;;18.57;16.20;;;8.80;99.90;;;;;;5055357;28;20167;-83
2021/11/15 02:15:10;;;;;;;19.70;16.30;;;8.00;99.90;;;;;;5055439;28;20402;-84
2021/11/15 02:17:37;;;;;;;19.52;16.60;;;8.80;99.90;;;;;;5037489;28;20209;-84
2021/11/15 02:20:08;;;;;;;21.10;16.40;;;8.70;99.90;;;;;;5055392;28;20171;-84
2021/11/15 02:22:34;;;;;;;18.63;16.60;;;8.80;99.90;;;;;;5055312;28;20414;-84
2021/11/15 02:25:02;;;;;;;19.15;15.10;;;8.70;99.90;;;;;;5055367;28;20229;-84
2021/11/15 02:27:28;;;;;;;19.10;16.53;;;8.70;99.90;;;;;;5037328;28;20627;-84
2021/11/15 02:29:54;;;;;;;18.92;16.33;;;8.70;99.90;;;;;;5055171;28;20402;-85
2021/11/15 02:32:20;;;;;;;20.20;15.37;;;;;;;;;;5055057;28;20233;-84
2021/11/15 02:34:45;;;;;;;20.95;16.48;;;8.70;99.90;;;;;;5055111;28;20159;-84
2021/11/15 02:37:11;;;;;;;21.77;16.50;;;8.70;99.90;;;;;;5054983;28;20626;-84
2021/11/15 02:39:37;;;;;;;22.77;15.40;;;8.70;99.90;;;;;;5055067;28;20160;-84
2021/11/15 02:42:03;;;;;;;19.50;15.60;;;8.50;99.90;;;;;;5055026;28;20175;-84
2021/11/15 02:44:28;;;;;;;20.43;16.60;;;8.80;99.90;;;;;;5055115;28;20203;-84
2021/11/15 02:46:54;;;;;;;20.40;16.30;;;;;;;;;;5054793;28;20508;-84
2021/11/15 02:49:20;;;;;;;21.98;16.73;;;8.70;99.90;;;;;;5055031;28;20187;-84
2021/11/15 02:51:46;;;;;;;19.23;15.90;;;8.70;99.90;;;;;;5054850;28;20179;-84
2021/11/15 02:54:11;;;;;;;20.97;16.30;;;8.60;99.90;;;;;;5054718;28;20449;-84
2021/11/15 02:56:40;;;;;;;19.73;16.63;;;8.40;99.90;;;;;;5054625;28;20176;-84
2021/11/15 02:59:06;;;;;;;23.10;17.20;;;8.50;99.90;;;;;;5054591;28;20175;-83
2021/11/15 03:01:32;;;;;;;27.70;18.07;;;8.40;99.90;;;;;;5054597;28;20421;-85
2021/11/15 03:03:57;;;;;;;23.73;17.87;;;8.60;99.90;;;;;;5054588;28;20219;-84
2021/11/15 03:06:23;;;;;;;25.73;18.63;;;8.50;99.90;;;;;;5053413;28;20206;-84
2021/11/15 03:08:50;;;;;;;22.93;17.90;;;;;;;;;;5054540;28;20163;-84
2021/11/15 03:11:15;;;;;;;22.08;16.88;;;8.50;99.90;;;;;;5054380;28;20202;-84
2021/11/15 03:13:46;;;;;;;18.90;16.07;;;8.60;99.90;;;;;;5054526;28;20180;-84
2021/11/15 03:16:13;;;;;;;19.48;15.88;;;8.70;99.90;;;;;;5054291;28;20221;-85
2021/11/15 03:18:41;;;;;;;31.27;18.90;;;8.70;99.90;;;;;;5054200;28;20215;-84
2021/11/15 03:21:10;;;;;;;20.05;15.77;;;8.60;99.90;;;;;;5054136;28;20202;-84
2021/11/15 03:23:38;;;;;;;24.17;16.27;;;8.70;99.90;;;;;;5036241;28;20179;-84
2021/11/15 03:26:04;;;;;;;23.23;17.15;;;8.60;99.90;;;;;;5054209;28;20203;-84
2021/11/15 03:28:33;;;;;;;23.90;16.80;;;8.50;99.90;;;;;;5054315;28;20182;-84
2021/11/15 03:31:06;;;;;;;52.88;38.33;;;8.50;99.90;;;;;;5053979;28;20194;-84
2021/11/15 03:33:33;;;;;;;22.60;17.77;;;8.60;99.90;;;;;;5054072;28;20179;-84
2021/11/15 03:36:00;;;;;;;23.55;17.13;;;8.50;99.90;;;;;;5053792;28;20780;-84
2021/11/15 03:38:26;;;;;;;22.42;17.23;;;8.20;99.90;;;;;;5053879;28;20175;-83
2021/11/15 03:40:52;;;;;;;24.85;18.85;;;8.50;99.90;;;;;;5053792;28;20167;-84
2021/11/15 03:43:18;;;;;;;24.70;18.42;;;8.50;99.90;;;;;;5053856;28;20171;-84
2021/11/15 03:45:44;;;;;;;21.60;17.13;;;8.60;99.90;;;;;;5053496;28;20167;-84
2021/11/15 03:48:11;;;;;;;29.13;18.50;;;8.20;99.90;;;;;;5053796;28;20171;-83
2021/11/15 03:50:37;;;;;;;22.07;16.17;;;7.50;99.90;;;;;;5035738;28;20174;-83
2021/11/15 03:53:06;;;;;;;23.25;17.67;;;8.50;99.90;;;;;;5053530;28;20492;-84
2021/11/15 03:55:32;;;;;;;28.35;20.80;;;8.50;99.90;;;;;;5053324;28;20175;-84
2021/11/15 03:57:58;;;;;;;20.80;16.73;;;8.20;99.90;;;;;;5053556;28;20163;-84
2021/11/15 04:00:29;;;;;;;23.30;16.37;;;8.40;99.90;;;;;;5053536;28;20472;-84
2021/11/15 04:03:03;;;;;;;22.37;17.40;;;8.50;99.90;;;;;;5053204;28;20414;-84
2021/11/15 04:05:33;;;;;;;22.60;16.50;;;8.50;99.90;;;;;;5053415;28;20705;-84
2021/11/15 04:08:03;;;;;;;25.63;18.63;;;8.60;99.90;;;;;;5053199;28;20239;-86
2021/11/15 04:10:38;;;;;;;22.00;17.65;;;8.60;99.90;;;;;;5053382;28;20171;-85
2021/11/15 04:13:13;;;;;;;24.30;16.25;;;8.70;99.90;;;;;;5053321;28;20175;-84
2021/11/15 04:15:39;;;;;;;26.80;16.50;;;8.50;99.90;;;;;;5053088;28;20171;-84
2021/11/15 04:18:08;;;;;;;24.45;17.50;;;8.60;99.90;;;;;;5052801;28;20425;-85
2021/11/15 04:20:34;;;;;;;25.67;17.80;;;8.50;99.90;;;;;;5053121;28;20163;-84
2021/11/15 04:23:00;;;;;;;25.33;17.03;;;8.20;99.90;;;;;;5053220;28;20524;-83
2021/11/15 04:25:25;;;;;;;22.37;17.27;;;8.50;99.90;;;;;;5053134;28;20171;-83
2021/11/15 04:27:51;;;;;;;22.47;14.87;;;8.60;99.90;;;;;;5053016;28;20215;-85
2021/11/15 04:30:17;;;;;;;24.57;17.27;;;8.60;99.90;;;;;;5052839;28;20164;-83
2021/11/15 04:32:44;;;;;;;24.63;16.33;;;8.70;99.90;;;;;;5053057;28;20205;-83
2021/11/15 04:35:12;;;;;;;21.70;17.20;;;8.70;99.90;;;;;;5053062;28;20175;-84
2021/11/15 04:37:39;;;;;;;25.73;17.90;;;8.80;99.90;;;;;;5052904;28;20187;-84
2021/11/15 04:40:06;;;;;;;22.05;16.27;;;8.70;99.90;;;;;;5052885;28;20254;-83
2021/11/15 04:42:32;;;;;;;26.58;18.92;;;8.70;99.90;;;;;;5052851;28;20167;-82
2021/11/15 04:44:57;;;;;;;24.80;17.20;;;8.60;99.90;;;;;;5052849;28;20186;-83
2021/11/15 04:47:24;;;;;;;27.77;17.77;;;8.60;99.90;;;;;;5052680;28;20465;-83
2021/11/15 04:49:49;;;;;;;25.05;18.58;;;8.50;99.90;;;;;;5052679;28;20645;-84
2021/11/15 04:52:15;;;;;;;25.57;17.50;;;8.60;99.90;;;;;;5052856;28;20183;-83
2021/11/15 04:54:41;;;;;;;23.83;16.30;;;;;;;;;;5052733;28;20167;-84
2021/11/15 04:57:07;;;;;;;24.38;17.75;;;8.60;99.90;;;;;;5052720;28;20197;-83
2021/11/15 04:59:32;;;;;;;24.43;15.87;;;8.60;99.90;;;;;;5052730;28;20697;-83
2021/11/15 05:01:58;;;;;;;23.03;16.20;;;8.60;99.90;;;;;;5052601;28;20170;-83
2021/11/15 05:04:23;;;;;;;28.30;17.03;;;8.50;99.90;;;;;;5034585;28;20215;-84
2021/11/15 05:06:49;;;;;;;26.40;16.90;;;8.50;99.90;;;;;;5052729;28;20339;-85
2021/11/15 05:09:16;;;;;;;25.33;17.47;;;8.60;99.90;;;;;;5052709;28;20171;-84
2021/11/15 05:11:41;;;;;;;25.20;17.20;;;8.70;99.90;;;;;;5034737;28;20172;-83
2021/11/15 05:14:07;;;;;;;20.70;14.43;;;8.60;99.90;;;;;;5052588;28;20174;-84
2021/11/15 05:16:33;;;;;;;22.20;16.30;;;8.50;99.90;;;;;;5052434;28;20626;-84
2021/11/15 05:18:59;;;;;;;19.70;14.17;;;8.40;99.90;;;;;;5052750;28;20514;-83
2021/11/15 05:21:25;;;;;;;21.35;15.27;;;8.40;99.90;;;;;;5052447;28;20413;-84
2021/11/15 05:23:52;;;;;;;27.37;16.17;;;11.30;99.90;;;;;;5052592;28;20168;-84
2021/11/15 05:26:19;;;;;;;21.63;15.02;;;;;;;;;;5052053;28;20967;-83
2021/11/15 05:28:44;;;;;;;21.83;15.75;;;8.50;99.90;;;;;;5052511;28;20545;-84
2021/11/15 05:31:10;;;;;;;22.83;16.30;;;8.40;99.90;;;;;;5038280;28;20254;-83
2021/11/15 05:33:35;;;;;;;22.90;16.10;;;8.40;99.90;;;;;;5056065;28;20194;-83
2021/11/15 05:36:01;;;;;;;24.27;14.60;;;;;;;;;;5056289;28;20290;-84
2021/11/15 05:38:27;;;;;;;21.00;15.43;;;8.50;99.90;;;;;;5056077;28;20174;-84
2021/11/15 05:40:53;;;;;;;21.07;15.70;;;8.40;99.90;;;;;;5038098;28;20541;-84
2021/11/15 05:43:19;;;;;;;19.80;14.70;;;8.50;99.90;;;;;;5056031;28;20413;-85
2021/11/15 05:45:44;;;;;;;20.33;14.70;;;7.90;99.90;;;;;;5055586;28;20167;-85
2021/11/15 05:48:10;;;;;;;24.93;16.57;;;;;;;;;;5056177;28;20210;-84
2021/11/15 05:50:36;;;;;;;28.38;16.30;;;8.40;99.90;;;;;;5038172;28;20163;-83
2021/11/15 05:53:02;;;;;;;21.23;15.93;;;8.50;99.90;;;;;;5056088;28;20596;-84
2021/11/15 05:55:28;;;;;;;19.63;14.23;;;8.50;99.90;;;;;;5038084;28;20258;-84
2021/11/15 05:57:54;;;;;;;19.47;14.67;;;8.30;99.90;;;;;;5056581;28;20168;-83
2021/11/15 06:00:26;;;;;;;24.70;16.05;;;7.20;99.90;;;;;;5055839;28;20163;-84
2021/11/15 06:02:53;;;;;;;20.88;15.05;;;8.30;99.90;;;;;;5055617;28;20171;-86
2021/11/15 06:05:19;;;;;;;23.80;16.50;;;;;;;;;;5055405;28;20163;-85
2021/11/15 06:07:45;;;;;;;22.50;16.00;;;8.40;99.90;;;;;;5055598;28;20209;-83
2021/11/15 06:10:11;;;;;;;25.47;16.37;;;8.50;99.90;;;;;;5057191;28;20255;-83
2021/11/15 06:12:38;;;;;;;23.30;16.85;;;8.60;99.90;;;;;;5055822;28;20175;-84
2021/11/15 06:15:05;;;;;;;22.20;16.02;;;8.50;99.90;;;;;;5055680;28;20167;-84
2021/11/15 06:17:31;;;;;;;23.95;17.17;;;8.60;99.90;;;;;;5038103;28;20528;-83
2021/11/15 06:19:56;;;;;;;25.00;17.37;;;6.80;99.90;;;;;;5037386;28;20187;-84
2021/11/15 06:22:22;;;;;;;24.40;17.07;;;8.40;99.90;;;;;;5037485;28;20171;-83
2021/11/15 06:24:47;;;;;;;22.57;16.43;;;8.30;99.90;;;;;;5035374;28;20230;-84
2021/11/15 06:27:15;;;;;;;25.60;18.00;;;8.50;99.90;;;;;;5051280;28;20257;-84
2021/11/15 06:29:41;;;;;;;25.00;15.70;;;8.50;99.90;;;;;;5018056;28;20175;-85
2021/11/15 06:32:08;;;;;;;22.23;16.90;;;8.40;99.90;;;;;;5035858;28;20433;-84
2021/11/15 06:34:33;;;;;;;22.90;16.63;;;8.40;99.90;;;;;;5035984;28;20168;-84
2021/11/15 06:36:59;;;;;;;24.20;18.40;;;8.20;99.90;;;;;;4355057;28;10000623;-83
2021/11/15 06:39:26;;;;;;;26.27;18.07;;;8.50;99.90;;;;;;5052195;28;20408;-84
2021/11/15 06:41:54;;;;;;;24.08;14.75;;;8.50;99.90;;;;;;5052779;28;20163;-86
2021/11/15 06:44:23;;;;;;;23.60;17.40;;;7.00;99.90;;;;;;5052740;28;20237;-84
2021/11/15 06:46:49;;;;;;;26.13;16.33;;;8.50;99.90;;;;;;5052141;28;20261;-84
2021/11/15 06:49:15;;;;;;;21.63;16.58;;;8.40;99.90;;;;;;5035756;28;20586;-84
2021/11/15 06:51:41;;;;;;;23.40;16.63;;;8.50;99.90;;;;;;5052988;28;20199;-83
2021/11/15 06:54:08;;;;;;;25.63;18.77;;;7.30;99.90;;;;;;5053130;28;20425;-84
2021/11/15 06:56:34;;;;;;;25.20;18.08;;;10.40;99.90;;;;;;5052847;28;20171;-84
2021/11/15 06:59:03;;;;;;;26.50;17.77;;;8.40;99.90;;;;;;5054283;28;20167;-90
2021/11/15 07:01:36;;;;;;;21.30;17.52;;;8.40;99.90;;;;;;5035079;28;20434;-91
2021/11/15 07:04:14;;;;;;;26.50;19.20;;;8.50;99.90;;;;;;5052717;28;20231;-89
2021/11/15 07:06:51;;;;;;;26.92;19.45;;;9.10;99.90;;;;;;5053422;28;20211;-89
2021/11/15 07:09:17;;;;;;;22.90;17.07;;;;;;;;;;5041268;28;20207;-93
2021/11/15 07:12:06;;;;;;;28.33;18.03;;;8.70;99.90;;;;;;5026448;28;20250;-93
2021/11/15 07:14:32;;;;;;;24.77;16.65;;;10.90;99.90;;;;;;5025567;28;20550;-89
2021/11/15 07:16:58;;;;;;;24.43;16.97;;;;;;;;;;5046300;28;20163;-92
2021/11/15 07:19:26;;;;;;;25.88;15.95;;;;;;;;;;5046721;28;20176;-92
2021/11/15 07:21:56;;;;;;;28.75;17.70;;;8.50;99.90;;;;;;5013760;28;20207;-88
2021/11/15 07:24:29;;;;;;;27.67;16.92;;;8.70;99.90;;;;;;5029467;28;20199;-91
2021/11/15 07:26:55;;;;;;;29.37;17.70;;;;;;;;;;5028544;28;20310;-92
2021/11/15 07:29:23;;;;;;;23.50;17.07;;;8.70;99.90;;;;;;5030344;28;20426;-90
2021/11/15 07:31:57;;;;;;;21.30;15.50;;;8.50;99.90;;;;;;5046238;28;20430;-93
2021/11/15 07:34:27;;;;;;;25.65;15.93;;;;;;;;;;5029960;28;20189;-90
2021/11/15 07:36:56;;;;;;;32.60;19.92;;;8.50;99.90;;;;;;5048408;28;20171;-89
2021/11/15 07:39:32;;;;;;;24.55;16.92;;;10.10;99.90;;;;;;5067996;28;20187;-91
2021/11/15 07:41:58;;;;;;;23.45;16.65;;;;;;;;;;5046035;28;20183;-92
2021/11/15 07:44:26;;;;;;;28.48;16.70;;;;;;;;;;5083149;28;20270;-87
2021/11/15 07:46:53;;;;;;;20.27;13.93;;;;;;;;;;5078344;28;20203;-91
2021/11/15 07:49:35;;;;;;;22.23;14.13;;;8.60;99.90;;;;;;5066577;28;20179;-91
2021/11/15 07:52:18;;;;;;;23.63;15.98;;;8.40;99.90;;;;;;5047258;28;20218;-92
2021/11/15 07:54:56;;;;;;;26.08;16.25;;;6.80;99.90;;;;;;5033663;28;20180;-87
2021/11/15 07:57:24;;;;;;;23.42;14.07;;;8.40;99.90;;;;;;5050800;28;20176;-92
2021/11/15 08:00:11;;;;;;;24.95;14.82;;;11.40;99.90;;;;;;5038735;28;20176;-90
2021/11/15 08:02:37;;;;;;;19.17;13.20;;;7.70;99.90;;;;;;5016385;28;20312;-92
2021/11/15 08:05:25;;;;;;;19.55;12.90;;;8.50;99.90;;;;;;5033265;28;20206;-91
2021/11/15 08:07:51;;;;;;;23.23;13.18;;;;;;;;;;5054822;28;20195;-86
2021/11/15 08:10:19;;;;;;;24.67;15.48;;;8.40;99.90;;;;;;5035568;28;20182;-88
2021/11/15 08:12:47;;;;;;;22.65;14.90;;;7.80;99.90;;;;;;5051479;28;20604;-86
2021/11/15 08:15:15;;;;;;;22.33;16.40;;;8.30;99.90;;;;;;5029420;28;20199;-89
2021/11/15 08:17:45;;;;;;;19.73;12.50;;;8.60;99.90;;;;;;5047674;28;20374;-91
2021/11/15 08:20:28;;;;;;;19.95;13.25;;;8.40;99.90;;;;;;5049049;28;20250;-90
2021/11/15 08:22:58;;;;;;;20.90;14.23;;;8.40;99.90;;;;;;5048115;28;20218;-87
2021/11/15 08:25:50;;;;;;;18.10;12.77;;;9.90;99.90;;;;;;5030442;28;20176;-88
2021/11/15 08:28:16;;;;;;;22.60;14.07;;;;;;;;;;5029263;28;20210;-89
2021/11/15 08:30:43;;;;;;;23.60;14.47;;;;;;;;;;5033029;28;20429;-91
2021/11/15 08:33:10;;;;;;;21.65;15.40;;;8.10;99.90;;;;;;5026521;28;20521;-85
2021/11/15 08:35:36;;;;;;;24.40;14.52;;;10.20;99.90;;;;;;5034058;28;20168;-85
2021/11/15 08:38:01;;;;;;;21.85;15.30;;;7.80;99.90;;;;;;5033483;28;20166;-85
2021/11/15 08:40:27;;;;;;;24.63;16.43;;;8.20;99.90;;;;;;5014776;28;20175;-84
2021/11/15 08:42:53;;;;;;;24.80;15.90;;;8.20;99.90;;;;;;5033610;28;20168;-84
2021/11/15 08:45:20;;;;;;;24.97;15.97;;;7.90;99.90;;;;;;5032846;28;20210;-85
2021/11/15 08:47:45;;;;;;;20.30;14.65;;;7.90;99.90;;;;;;5033034;28;20569;-86
2021/11/15 08:50:11;;;;;;;22.40;15.60;;;8.30;99.90;;;;;;5033172;28;20195;-87
2021/11/15 08:52:37;;;;;;;22.50;16.50;;;8.40;99.90;;;;;;5032987;28;20175;-86
2021/11/15 08:55:03;;;;;;;23.70;16.23;;;;;;;;;;5033313;28;20198;-86
2021/11/15 08:57:29;;;;;;;22.88;16.10;;;8.30;99.90;;;;;;5033045;28;20451;-85
2021/11/15 08:59:55;;;;;;;29.80;19.07;;;8.10;99.90;;;;;;5033850;28;20180;-86
2021/11/15 09:02:21;;;;;;;28.30;16.70;;;8.50;99.90;;;;;;5033926;28;20217;-85
2021/11/15 09:04:47;;;;;;;29.47;18.07;;;8.30;99.90;;;;;;5036235;28;20645;-85
2021/11/15 09:07:12;;;;;;;25.53;16.87;;;8.40;99.90;;;;;;5020834;28;20199;-84
2021/11/15 09:09:41;;;;;;;26.40;16.58;;;8.50;99.90;;;;;;4684820;28;10000207;-86
2021/11/15 09:12:09;;;;;;;25.92;17.10;;;8.60;99.90;;;;;;5052649;28;20164;-86
2021/11/15 09:15:07;;;;;;;27.33;16.85;;;8.60;99.90;;;;;;5039440;28;20227;-90
2021/11/15 09:17:33;;;;;;;27.60;17.43;;;;;;;;;;5038944;28;20156;-89
2021/11/15 09:20:02;;;;;;;33.08;21.60;;;;;;;;;;5035500;28;20419;-89
2021/11/15 09:22:30;;;;;;;31.25;19.73;;;8.20;99.90;;;;;;5036819;28;20203;-88
2021/11/15 09:25:04;;;;;;;36.30;20.40;;;8.40;99.90;;;;;;5037048;28;20581;-88
2021/11/15 09:28:04;;;;;;;33.03;18.43;;;8.80;99.90;;;;;;5035526;28;20488;-86
2021/11/15 09:30:30;;;;;;;31.75;19.98;;;8.20;99.90;;;;;;5050769;28;20432;-85
2021/11/15 09:32:56;;;;;;;30.70;19.87;;;;;;;;;;5051344;28;20176;-86
2021/11/15 09:35:24;;;;;;;34.67;20.27;;;8.70;99.90;;;;;;5051005;28;20172;-86
2021/11/15 09:37:53;;;;;;;25.45;18.25;;;;;;;;;;5053509;28;20537;-89
2021/11/15 09:40:21;;;;;;;28.42;18.42;;;8.70;99.90;;;;;;5035654;28;20639;-89
2021/11/15 09:42:50;;;;;;;28.30;18.20;;;;;;;;;;5035633;28;20239;-91
2021/11/15 09:45:29;;;;;;;28.20;19.20;;;8.50;99.90;;;;;;5054246;28;20179;-91
2021/11/15 09:47:57;;;;;;;21.20;14.50;;;9.70;99.90;;;;;;5021328;28;20227;-92
2021/11/15 09:50:26;;;;;;;23.15;15.43;;;8.60;99.90;;;;;;5053676;28;20410;-88
2021/11/15 09:52:55;;;;;;;20.80;14.13;;;6.60;99.90;;;;;;5038337;28;20211;-87
2021/11/15 09:55:21;;;;;;;19.75;14.15;;;;;;;;;;5048951;28;20422;-89
2021/11/15 09:57:57;;;;;;;18.50;13.45;;;8.70;99.90;;;;;;5033985;28;20255;-85
2021/11/15 10:00:27;;;;;;;18.23;13.27;;;12.90;99.90;;;;;;5034059;28;20172;-89
2021/11/15 10:03:03;;;;;;;18.08;13.15;;;8.90;99.90;;;;;;5051764;28;20180;-89
2021/11/15 10:05:31;;;;;;;20.35;14.40;;;;;;;;;;5049143;28;20191;-86
2021/11/15 10:08:04;;;;;;;20.92;14.02;;;8.80;99.90;;;;;;5050056;28;20196;-88
2021/11/15 10:10:59;;;;;;;22.42;14.13;;;8.80;99.90;;;;;;5035481;28;20168;-88
2021/11/15 10:13:34;;;;;;;36.25;21.23;;;9.20;99.90;;;;;;5054468;28;20283;-87
2021/11/15 10:16:21;;;;;;;18.73;13.13;;;9.00;99.90;;;;;;5035243;28;20203;-87
2021/11/15 10:19:10;;;;;;;15.20;11.45;;;9.30;99.90;;;;;;5036954;28;20496;-88
2021/11/15 10:21:46;;;;;;;13.02;11.00;;;8.80;99.90;;;;;;5016118;28;20186;-89
2021/11/15 10:24:16;;;;;;;17.58;12.45;;;8.80;99.90;;;;;;5032571;28;20262;-89
2021/11/15 10:26:54;;;;;;;16.90;12.73;;;11.80;99.90;;;;;;5041824;28;20306;-85
2021/11/15 10:29:24;;;;;;;14.33;11.67;;;8.80;99.90;;;;;;5034844;28;20423;-88
2021/11/15 10:31:51;;;;;;;14.87;12.13;;;8.90;99.90;;;;;;5024130;28;20430;-87
2021/11/15 10:34:25;;;;;;;19.30;16.30;;;10.60;99.90;;;;;;5028262;28;20406;-89
2021/11/15 10:36:56;;;;;;;25.53;12.60;;;10.00;99.90;;;;;;5044655;28;20172;-86
2021/11/15 10:39:42;;;;;;;18.10;12.63;;;8.90;99.90;;;;;;5058752;28;20805;-87
2021/11/15 10:42:13;;;;;;;17.23;12.00;;;9.10;99.90;;;;;;5039691;28;20176;-87
2021/11/15 10:44:47;;;;;;;16.80;12.82;;;8.90;99.90;;;;;;5059472;28;20497;-87
2021/11/15 10:47:14;;;;;;;15.43;12.15;;;8.90;99.90;;;;;;5041844;28;20210;-87
2021/11/15 10:49:41;;;;;;;15.93;11.55;;;8.80;99.90;;;;;;5059505;28;20190;-87
2021/11/15 10:52:11;;;;;;;16.73;13.20;;;8.80;99.90;;;;;;5060425;28;20215;-86
2021/11/15 10:57:24;;;;;;;17.05;11.88;;;8.60;99.90;;;;;;5057297;28;20175;-86
2021/11/15 11:00:05;;;;;;;15.43;11.05;;;9.00;99.90;;;;;;5058364;28;20163;-86
2021/11/15 11:02:34;;;;;;;15.45;12.48;;;8.90;99.90;;;;;;5040738;28;20217;-86
2021/11/15 11:05:10;;;;;;;18.00;13.95;;;11.30;99.90;;;;;;5059977;28;20215;-86
2021/11/15 11:07:37;;;;;;;15.43;11.77;;;8.90;99.90;;;;;;5045105;28;20232;-86
2021/11/15 11:10:06;;;;;;;18.30;12.10;;;9.00;99.90;;;;;;5042952;28;20163;-84
2021/11/15 11:12:39;;;;;;;17.53;13.13;;;8.90;99.90;;;;;;4693171;28;10000539;-83
2021/11/15 11:15:39;;;;;;;16.10;11.95;;;8.90;99.90;;;;;;5040487;28;20410;-87
2021/11/15 11:24:22;;;;;;;14.30;12.65;;;8.80;99.90;;;;;;5060832;28;20196;-85
2021/11/15 11:26:51;;;;;;;17.80;12.40;;;8.80;99.90;;;;;;5043633;28;20203;-87
2021/11/15 11:29:26;;;;;;;14.82;11.93;;;8.80;99.90;;;;;;5043876;28;20634;-87
2021/11/15 11:31:56;;;;;;;20.40;12.90;;;8.50;99.90;;;;;;5061445;28;20170;-86
2021/11/15 11:34:23;;;;;;;18.55;11.85;;;;;;;;;;5061578;28;20182;-87
2021/11/15 11:36:53;;;;;;;21.58;14.18;;;8.80;99.90;;;;;;5084418;28;20561;-87
2021/11/15 11:39:36;;;;;;;;;;;;;;;;;;;;;
2021/11/15 11:42:12;;;;;;;11.27;9.73;;;9.10;99.90;;;;;;5070246;28;20191;-90
2021/11/15 11:44:39;;;;;;;15.18;10.13;;;;;;;;;;5049554;28;20167;-88
2021/11/15 11:47:13;;;;;;;12.48;11.32;;;8.90;99.90;;;;;;5084161;28;20274;-87
2021/11/15 11:49:42;;;;;;;16.73;11.45;;;8.90;99.90;;;;;;5069128;28;20178;-88
2021/11/15 11:52:39;;;;;;;11.93;9.85;;;9.50;99.90;;;;;;5036819;28;20179;-91
2021/11/15 11:57:36;;;;;;;10.90;9.90;;;8.90;99.90;;;;;;5088207;28;20206;-88
2021/11/15 12:00:21;;;;;;;11.43;9.23;;;8.90;99.90;;;;;;5091198;28;20429;-87
2021/11/15 12:03:05;;;;;;;14.15;11.35;;;8.50;99.90;;;;;;5087101;28;20193;-91
2021/11/15 12:08:09;;;;;;;11.48;9.80;;;;;;;;;;5064467;23;20249;-86
2021/11/15 12:10:44;;;;;;;12.00;8.93;;;8.90;99.90;;;;;;5060260;28;20179;-86
2021/11/15 12:13:19;;;;;;;11.98;10.85;;;12.90;99.90;;;;;;5074662;23;20255;-89
2021/11/15 12:16:08;;;;;;;10.90;9.80;;;9.20;99.90;;;;;;5075423;23;20216;-88
2021/11/15 12:18:37;;;;;;;13.65;10.23;;;9.00;99.90;;;;;;5319755;22;21409;-87
2021/11/15 12:21:05;;;;;;;12.30;10.40;;;;;;;;;;5293018;22;20295;-88
2021/11/15 12:26:51;;;;;;;14.88;10.57;;;9.00;99.90;;;;;;5209790;22;20960;-91
2021/11/15 12:29:32;;;;;;;14.10;9.57;;;9.00;99.90;;;;;;5063823;28;20553;-87
2021/11/15 12:32:09;;;;;;;13.55;10.85;;;8.50;99.90;;;;;;5068852;28;20167;-89
2021/11/15 12:35:12;;;;;;;13.27;10.05;;;9.00;99.90;;;;;;5066306;28;20174;-91
2021/11/15 12:37:45;;;;;;;15.77;10.45;;;8.90;99.90;;;;;;5068812;28;20178;-90
2021/11/15 12:40:39;;;;;;;13.00;11.57;;;8.90;99.90;;;;;;5071810;28;20182;-91
2021/11/15 12:43:20;;;;;;;12.20;10.50;;;11.60;99.90;;;;;;5069780;28;20152;-88
2021/11/15 12:46:31;;;;;;;12.27;10.23;;;8.80;99.90;;;;;;5060137;28;20441;-91
2021/11/15 12:50:07;;;;;;;12.00;10.60;;;8.80;99.90;;;;;;5042410;28;20247;-86
2021/11/15 12:52:35;;;;;;;13.40;10.43;;;;;;;;;;5394506;22;20202;-89
2021/11/15 12:55:21;;;;;;;13.15;10.13;;;8.80;99.90;;;;;;5052981;28;20168;-89
2021/11/15 12:58:14;;;;;;;15.43;11.18;;;8.80;99.90;;;;;;5050790;28;20186;-91
2021/11/15 13:00:40;;;;;;;14.70;10.02;;;;;;;;;;5048424;28;20162;-87
2021/11/15 13:03:14;;;;;;;11.70;9.48;;;8.90;99.90;;;;;;5166390;22;20215;-87
2021/11/15 13:05:41;;;;;;;11.27;8.52;;;8.90;99.90;;;;;;5031890;28;20175;-88
2021/11/15 13:08:12;;;;;;;14.50;9.10;;;8.80;99.90;;;;;;5030493;28;20215;-90
2021/11/15 13:10:41;;;;;;;9.35;8.32;;;12.10;99.90;;;;;;5040355;28;20179;-89
2021/11/15 13:13:14;;;;;;;11.73;10.40;;;8.80;99.90;;;;;;5047455;28;20551;-87
2021/11/15 13:15:40;;;;;;;9.38;8.45;;;;;;;;;;5019017;28;20164;-87
2021/11/15 13:18:08;;;;;;;10.07;8.90;;;8.90;99.90;;;;;;5035896;28;20172;-87